Time;durP1;ratioP1;P1;durP2;ratioP2;P2;SDS_P1;SDS_P2;PMS_P1;PMS_P2;Temp;Humidity;BMP_temperature;BMP_pressure;BME280_temperature;BME280_humidity;BME280_pressure;Samples;Min_cycle;Max_cycle;Signal;HPM_P1;HPM_P2
2021/05/20 00:02:37;;;;;;;2.97;1.00;;;;;;;13.42;67.19;100476.94;5035861;28;20056;-73
2021/05/20 00:05:42;;;;;;;3.33;1.00;;;;;;;13.42;67.61;100498.50;5033048;28;20392;-73
2021/05/20 00:08:46;;;;;;;1.80;0.60;;;;;;;13.38;67.78;100499.78;5034522;28;20048;-73
2021/05/20 00:11:51;;;;;;;8.90;0.90;;;;;;;13.33;68.33;100504.78;5035063;28;20068;-73
2021/05/20 00:14:55;;;;;;;2.25;0.65;;;;;;;13.24;69.14;100513.75;5035565;28;20056;-73
2021/05/20 00:17:59;;;;;;;3.28;0.95;;;;;;;13.19;69.99;100509.78;5035973;28;20060;-73
2021/05/20 00:21:04;;;;;;;3.28;0.93;;;;;;;13.18;70.31;100527.84;5033686;28;20060;-73
2021/05/20 00:24:09;;;;;;;3.25;0.90;;;;;;;13.15;70.52;100514.66;5034473;28;20048;-73
2021/05/20 00:27:13;;;;;;;2.55;0.85;;;;;;;13.16;71.65;100518.19;5035225;28;20048;-73
2021/05/20 00:30:18;;;;;;;4.97;1.10;;;;;;;13.21;71.45;100522.13;5035427;28;20052;-73
2021/05/20 00:33:22;;;;;;;2.88;0.95;;;;;;;13.18;71.96;100521.59;5032828;28;20045;-72
2021/05/20 00:36:26;;;;;;;5.38;1.48;;;;;;;13.08;71.28;100508.16;5033877;28;20048;-73
2021/05/20 00:39:30;;;;;;;2.33;0.80;;;;;;;13.02;70.29;100512.25;5034426;28;20064;-74
2021/05/20 00:42:38;;;;;;;3.92;1.13;;;;;;;12.93;70.75;100515.81;5034734;28;20064;-73
2021/05/20 00:45:42;;;;;;;5.13;1.30;;;;;;;12.89;71.06;100509.00;5033208;28;20056;-73
2021/05/20 00:48:47;;;;;;;3.53;0.95;;;;;;;13.00;70.91;100529.56;5033838;28;20060;-73
2021/05/20 00:51:51;;;;;;;2.22;0.93;;;;;;;13.02;71.65;100530.25;5030962;28;20044;-73
2021/05/20 00:54:58;;;;;;;2.08;0.80;;;;;;;13.03;71.38;100535.47;5034756;28;20053;-74
2021/05/20 00:58:02;;;;;;;2.10;0.85;;;;;;;13.03;70.99;100545.44;5032932;28;20049;-74
2021/05/20 01:01:09;;;;;;;2.80;0.80;;;;;;;13.04;71.38;100552.50;5033471;28;20049;-73
2021/05/20 01:04:13;;;;;;;4.10;0.90;;;;;;;13.06;72.16;100553.22;5033347;28;20052;-72
2021/05/20 01:07:18;;;;;;;2.95;0.90;;;;;;;13.05;71.00;100554.22;5034361;28;20064;-72
2021/05/20 01:10:22;;;;;;;3.08;0.95;;;;;;;13.00;69.86;100549.28;5032939;28;20056;-74
2021/05/20 01:13:27;;;;;;;2.47;0.80;;;;;;;12.95;69.98;100551.56;5033216;28;20519;-72
2021/05/20 01:16:31;;;;;;;3.67;0.93;;;;;;;12.76;70.31;100554.28;5038376;28;20049;-72
2021/05/20 01:19:44;;;;;;;7.93;0.90;;;;;;;12.76;70.12;100554.28;5033608;28;20064;-73
2021/05/20 01:22:48;;;;;;;3.10;0.90;;;;;;;12.79;70.25;100561.19;5033041;28;20412;-73
2021/05/20 01:25:53;;;;;;;1.80;0.98;;;;;;;12.71;70.45;100556.56;5038633;28;20052;-74
2021/05/20 01:28:57;;;;;;;3.35;1.02;;;;;;;12.75;71.08;100565.19;5033391;28;20052;-72
2021/05/20 01:32:03;;;;;;;4.72;1.00;;;;;;;12.73;70.96;100551.00;5033855;28;20048;-73
2021/05/20 01:35:08;;;;;;;6.40;1.27;;;;;;;12.68;70.60;100558.66;5032875;28;20053;-73
2021/05/20 01:41:30;;;;;;;3.88;1.23;;;;;;;12.75;71.76;100559.78;5033007;28;20041;-72
2021/05/20 01:44:34;;;;;;;2.78;0.95;;;;;;;12.75;71.23;100563.34;5033275;28;20056;-72
2021/05/20 01:47:39;;;;;;;9.25;1.17;;;;;;;12.71;71.42;100566.47;5034248;28;20056;-73
2021/05/20 01:50:43;;;;;;;4.45;1.17;;;;;;;12.67;71.53;100567.72;5031971;28;20056;-72
2021/05/20 01:53:51;;;;;;;7.05;1.20;;;;;;;12.65;70.97;100575.09;5032485;28;20052;-73
2021/05/20 01:56:55;;;;;;;4.05;0.98;;;;;;;12.64;72.13;100576.94;5029894;28;20048;-73
2021/05/20 02:00:01;;;;;;;5.63;0.98;;;;;;;12.63;70.92;100582.47;5034116;28;20052;-73
2021/05/20 02:03:09;;;;;;;4.75;1.17;;;;;;;12.60;70.58;100575.53;5032715;28;20049;-75
2021/05/20 02:06:14;;;;;;;4.20;1.20;;;;;;;12.47;70.45;100576.84;5032545;28;20048;-73
2021/05/20 02:09:18;;;;;;;4.57;1.00;;;;;;;12.29;71.00;100574.81;5033533;28;20054;-73
2021/05/20 02:12:23;;;;;;;3.65;1.00;;;;;;;12.06;72.28;100591.34;5031732;28;20048;-73
2021/05/20 02:15:27;;;;;;;2.92;1.00;;;;;;;11.94;72.95;100587.06;5032281;28;20052;-74
2021/05/20 02:18:32;;;;;;;4.35;1.00;;;;;;;11.82;74.08;100590.88;5032778;28;20048;-74
2021/05/20 02:21:36;;;;;;;3.25;0.82;;;;;;;11.76;73.98;100589.56;5033365;28;20044;-73
2021/05/20 02:24:41;;;;;;;4.90;1.27;;;;;;;11.68;73.78;100590.25;5033564;28;20508;-73
2021/05/20 02:27:46;;;;;;;4.07;1.00;;;;;;;11.70;74.65;100590.13;5031491;28;20400;-74
2021/05/20 02:30:50;;;;;;;5.10;0.93;;;;;;;11.64;75.23;100596.88;5031261;28;20041;-74
2021/05/20 02:33:57;;;;;;;2.65;0.90;;;;;;;11.72;74.91;100598.91;5032644;28;20049;-74
2021/05/20 02:37:01;;;;;;;2.42;1.00;;;;;;;11.63;74.15;100592.44;5032601;28;20045;-74
2021/05/20 02:40:08;;;;;;;4.95;1.05;;;;;;;11.63;74.48;100591.59;5031569;28;20048;-74
2021/05/20 02:43:12;;;;;;;7.85;1.10;;;;;;;11.56;74.63;100593.13;5032155;28;20052;-74
2021/05/20 02:46:17;;;;;;;4.40;1.38;;;;;;;11.51;74.70;100592.69;5032967;28;20048;-75
2021/05/20 02:49:22;;;;;;;4.93;1.10;;;;;;;11.40;75.07;100596.34;5033262;28;20049;-74
2021/05/20 02:52:26;;;;;;;7.80;1.50;;;;;;;11.42;75.29;100598.88;5031511;28;20507;-74
2021/05/20 02:55:31;;;;;;;3.15;0.93;;;;;;;11.42;74.72;100588.13;5031787;28;20071;-75
2021/05/20 02:58:37;;;;;;;3.65;1.00;;;;;;;11.45;74.87;100602.16;5032254;28;20048;-73
2021/05/20 03:01:45;;;;;;;4.10;1.10;;;;;;;11.38;74.50;100594.75;5033315;28;20060;-74
2021/05/20 03:04:51;;;;;;;3.83;1.00;;;;;;;11.22;73.91;100589.88;5030902;28;20405;-75
2021/05/20 03:07:56;;;;;;;3.13;1.67;;;;;;;11.15;74.63;100604.81;5032186;28;20052;-73
2021/05/20 03:11:01;;;;;;;4.32;1.10;;;;;;;11.15;74.60;100601.28;5032757;28;20742;-73
2021/05/20 03:14:05;;;;;;;5.05;0.90;;;;;;;11.06;74.63;100597.53;5030736;28;20397;-73
2021/05/20 03:17:11;;;;;;;6.60;1.10;;;;;;;10.99;74.81;100599.03;5030288;28;20049;-74
2021/05/20 03:20:16;;;;;;;2.03;0.82;;;;;;;10.92;75.25;100598.72;5031992;28;20049;-75
2021/05/20 03:23:20;;;;;;;2.92;0.98;;;;;;;10.90;74.93;100598.00;5032895;28;20048;-74
2021/05/20 03:26:25;;;;;;;3.20;1.13;;;;;;;10.78;75.26;100601.75;5030546;28;20400;-74
2021/05/20 03:29:29;;;;;;;4.78;1.13;;;;;;;10.73;75.77;100601.28;5031075;28;20048;-74
2021/05/20 03:32:33;;;;;;;2.38;1.00;;;;;;;10.62;76.04;100598.63;5031553;28;20048;-75
2021/05/20 03:35:38;;;;;;;4.63;1.00;;;;;;;10.59;76.42;100601.56;5032164;28;20048;-74
2021/05/20 03:38:43;;;;;;;2.83;1.20;;;;;;;10.51;76.39;100603.19;5032654;28;20049;-75
2021/05/20 03:41:48;;;;;;;4.32;1.00;;;;;;;10.44;76.26;100595.66;5029997;28;20056;-74
2021/05/20 03:44:52;;;;;;;1.85;0.93;;;;;;;10.43;76.67;100598.47;5031325;28;20048;-74
2021/05/20 03:47:57;;;;;;;5.93;1.02;;;;;;;10.42;76.29;100605.66;5031857;28;20045;-73
2021/05/20 03:51:02;;;;;;;4.53;1.20;;;;;;;10.41;76.84;100611.16;5032321;28;20399;-74
2021/05/20 03:54:07;;;;;;;3.55;1.00;;;;;;;10.39;76.11;100605.91;5030256;28;20392;-74
2021/05/20 03:57:10;;;;;;;2.20;1.15;;;;;;;10.35;76.78;100604.47;5027421;28;20052;-74
2021/05/20 04:00:15;;;;;;;5.40;1.40;;;;;;;10.39;76.51;100610.44;5030690;28;20044;-74
2021/05/20 04:03:27;;;;;;;4.43;1.05;;;;;;;10.39;76.27;100607.75;5032322;28;20064;-74
2021/05/20 04:06:31;;;;;;;3.40;1.13;;;;;;;10.41;76.23;100614.72;5030802;28;20053;-74
2021/05/20 04:09:35;;;;;;;3.75;0.98;;;;;;;10.61;75.93;100614.88;5031598;28;20052;-74
2021/05/20 04:12:40;;;;;;;7.68;1.65;;;;;;;10.80;74.94;100617.69;5042537;28;20396;-74
2021/05/20 04:15:44;;;;;;;2.42;0.98;;;;;;;10.88;73.61;100613.41;5030149;28;20400;-73
2021/05/20 04:18:49;;;;;;;4.40;0.90;;;;;;;11.15;73.25;100622.75;5029317;28;20053;-72
2021/05/20 04:21:53;;;;;;;1.83;0.80;;;;;;;11.37;71.85;100636.06;5028338;28;20408;-74
2021/05/20 04:24:57;;;;;;;3.95;0.88;;;;;;;11.63;70.91;100637.31;5031838;28;20053;-71
2021/05/20 04:28:02;;;;;;;2.63;1.20;;;;;;;11.79;70.35;100636.84;5032581;28;20037;-72
2021/05/20 04:31:06;;;;;;;5.47;1.08;;;;;;;11.98;69.08;100635.09;5033487;28;20049;-73
2021/05/20 04:34:10;;;;;;;3.40;1.38;;;;;;;12.38;69.05;100640.44;5044733;28;20052;-74
2021/05/20 04:37:14;;;;;;;4.80;1.27;;;;;;;12.67;67.64;100635.06;5034626;28;20049;-74
2021/05/20 04:40:19;;;;;;;5.22;1.23;;;;;;;12.84;66.53;100634.34;5035127;28;20056;-73
2021/05/20 04:43:23;;;;;;;6.70;1.20;;;;;;;13.14;65.25;100634.22;5035591;28;20056;-74
2021/05/20 04:46:28;;;;;;;3.45;1.10;;;;;;;13.44;63.87;100638.56;5033529;28;20048;-73
2021/05/20 04:49:32;;;;;;;2.83;0.85;;;;;;;13.61;63.55;100649.44;5034103;28;20428;-74
2021/05/20 04:52:36;;;;;;;4.75;0.90;;;;;;;13.93;62.72;100649.03;5034825;28;20048;-73
2021/05/20 04:55:40;;;;;;;4.95;1.00;;;;;;;14.13;61.50;100653.34;5035101;28;20048;-73
2021/05/20 04:58:45;;;;;;;2.42;0.82;;;;;;;14.45;60.58;100654.75;5033144;28;20052;-73
2021/05/20 05:01:49;;;;;;;9.90;4.15;;;;;;;14.76;59.04;100658.81;5033760;28;20048;-73
2021/05/20 05:04:54;;;;;;;29.67;22.38;;;;;;;15.09;58.48;100660.78;5034191;28;20403;-73
2021/05/20 05:07:57;;;;;;;4.22;1.60;;;;;;;15.49;56.69;100660.28;5034528;28;20053;-74
2021/05/20 05:11:02;;;;;;;3.83;1.10;;;;;;;15.77;56.29;100656.44;5034955;28;20096;-74
2021/05/20 05:14:07;;;;;;;3.10;1.00;;;;;;;16.08;55.38;100654.03;5032061;28;20052;-74
2021/05/20 05:17:11;;;;;;;3.03;0.95;;;;;;;16.68;53.61;100654.78;5033733;28;20539;-73
2021/05/20 05:20:15;;;;;;;3.10;1.02;;;;;;;17.17;52.30;100659.22;5038877;28;20447;-74
2021/05/20 05:23:20;;;;;;;5.13;1.20;;;;;;;17.88;50.55;100658.47;5034474;28;20060;-74
2021/05/20 05:26:24;;;;;;;3.67;1.00;;;;;;;18.40;48.70;100659.63;5034943;28;20048;-74
2021/05/20 05:29:29;;;;;;;3.25;1.13;;;;;;;18.98;49.12;100670.03;5032902;28;20048;-74
2021/05/20 05:32:34;;;;;;;3.80;1.30;;;;;;;18.80;47.57;100673.03;5033753;28;20052;-74
2021/05/20 05:35:38;;;;;;;7.13;1.27;;;;;;;19.11;47.32;100662.09;5034258;28;20056;-75
2021/05/20 05:38:42;;;;;;;4.93;1.00;;;;;;;19.30;46.87;100669.78;5041723;28;20053;-74
2021/05/20 05:41:46;;;;;;;4.78;0.90;;;;;;;20.11;45.50;100667.09;5033050;28;20048;-75
2021/05/20 05:44:51;;;;;;;6.75;1.10;;;;;;;21.53;42.67;100660.97;5030841;28;20048;-76
2021/05/20 05:47:56;;;;;;;4.43;1.00;;;;;;;23.38;38.87;100667.94;5034399;28;20037;-74
2021/05/20 05:51:00;;;;;;;7.40;1.35;;;;;;;25.23;35.16;100655.38;5034191;28;20420;-75
2021/05/20 05:54:07;;;;;;;6.32;1.30;;;;;;;25.72;33.46;100658.16;5035369;28;20044;-74
2021/05/20 05:57:12;;;;;;;5.93;1.00;;;;;;;25.32;34.39;100660.38;5034596;28;20495;-75
2021/05/20 06:00:17;;;;;;;6.07;0.80;;;;;;;24.93;34.86;100674.38;5034615;28;20048;-74
2021/05/20 06:03:23;;;;;;;7.47;1.10;;;;;;;24.67;35.33;100678.03;5025178;28;20036;-74
2021/05/20 06:06:28;;;;;;;3.60;0.80;;;;;;;24.76;35.46;100675.91;5034243;28;20045;-74
2021/05/20 06:09:33;;;;;;;4.18;0.80;;;;;;;25.37;35.16;100676.19;5033944;28;20056;-73
2021/05/20 06:12:37;;;;;;;7.50;1.10;;;;;;;25.90;33.38;100679.38;5033166;28;20405;-74
2021/05/20 06:15:43;;;;;;;2.05;0.70;;;;;;;26.63;31.89;100680.25;5034318;28;20057;-74
2021/05/20 06:18:48;;;;;;;2.90;0.70;;;;;;;28.06;30.31;100681.91;5026071;28;20048;-74
2021/05/20 06:21:53;;;;;;;5.28;0.80;;;;;;;29.94;28.20;100675.16;5044613;28;20411;-74
2021/05/20 06:24:59;;;;;;;4.45;0.80;;;;;;;32.11;25.73;100683.19;5018090;28;20060;-76
2021/05/20 06:28:06;;;;;;;4.43;0.63;;;;;;;32.65;24.78;100686.56;5011212;28;20056;-73
2021/05/20 06:31:10;;;;;;;7.60;1.17;;;;;;;33.02;24.00;100687.25;5034193;28;20400;-74
2021/05/20 06:34:15;;;;;;;3.25;0.90;;;;;;;32.45;25.11;100684.50;5034024;28;20052;-73
2021/05/20 06:37:20;;;;;;;5.15;0.88;;;;;;;33.08;24.82;100686.19;5034322;28;20068;-74
2021/05/20 06:40:24;;;;;;;5.45;0.90;;;;;;;34.78;22.52;100691.09;5033597;28;20052;-74
2021/05/20 06:43:30;;;;;;;8.80;0.75;;;;;;;35.90;21.56;100692.88;5033841;28;20057;-74
2021/05/20 06:46:34;;;;;;;6.15;0.82;;;;;;;36.63;20.36;100690.75;5034367;28;20057;-74
2021/05/20 06:49:39;;;;;;;7.05;1.23;;;;;;;37.85;18.79;100692.66;5034570;28;20047;-74
2021/05/20 06:52:45;;;;;;;3.05;0.80;;;;;;;39.54;18.46;100686.56;5034233;28;20057;-74
2021/05/20 06:55:52;;;;;;;4.10;0.90;;;;;;;40.89;16.64;100694.47;5034235;28;20068;-74
2021/05/20 07:02:19;;;;;;;3.80;0.77;;;;;;;41.84;15.53;100704.66;5033288;28;20048;-74
2021/05/20 07:05:23;;;;;;;7.35;0.93;;;;;;;42.48;14.83;100707.47;5034016;28;20392;-74
2021/05/20 07:08:28;;;;;;;2.90;1.00;;;;;;;41.97;14.65;100714.94;5034088;28;20052;-75
2021/05/20 07:11:33;;;;;;;3.95;0.80;;;;;;;41.95;14.82;100708.78;5034250;28;20385;-75
2021/05/20 07:14:37;;;;;;;2.78;1.10;;;;;;;42.80;14.25;100712.50;5033207;28;20527;-75
2021/05/20 07:17:42;;;;;;;5.32;0.80;;;;;;;42.64;14.33;100719.91;5034043;28;20060;-76
2021/05/20 07:20:47;;;;;;;4.47;1.30;;;;;;;44.05;13.54;100716.22;5034227;28;20044;-75
2021/05/20 07:23:51;;;;;;;1.98;0.80;;;;;;;44.28;12.76;100720.28;5033850;28;20420;-76
2021/05/20 07:26:56;;;;;;;6.53;1.05;;;;;;;43.93;12.92;100709.31;5033259;28;20052;-75
2021/05/20 07:30:01;;;;;;;2.90;1.00;;;;;;;43.78;13.19;100720.47;5034109;28;20109;-75
2021/05/20 07:33:07;;;;;;;2.15;0.80;;;;;;;43.64;13.19;100729.22;5033387;28;20048;-74
2021/05/20 07:36:12;;;;;;;2.25;0.73;;;;;;;43.08;13.76;100721.34;5032697;28;20056;-74
2021/05/20 07:39:16;;;;;;;2.78;0.93;;;;;;;43.76;12.83;100728.47;5015308;28;20053;-75
2021/05/20 07:42:21;;;;;;;3.35;0.90;;;;;;;44.55;13.38;100730.97;5013560;28;20064;-73
2021/05/20 07:45:25;;;;;;;2.88;1.10;;;;;;;44.43;12.76;100722.44;5013951;28;20049;-74
2021/05/20 07:48:33;;;;;;;2.38;0.75;;;;;;;45.05;13.02;100728.63;5018156;28;20048;-74
2021/05/20 07:51:37;;;;;;;2.70;0.70;;;;;;;44.74;12.59;100734.03;5032779;28;20056;-75
2021/05/20 07:54:42;;;;;;;1.70;0.90;;;;;;;44.18;13.60;100726.41;5033745;28;20069;-75
2021/05/20 07:57:47;;;;;;;2.45;0.80;;;;;;;44.04;13.36;100725.88;5033582;28;20413;-75
2021/05/20 08:00:54;;;;;;;2.10;0.90;;;;;;;42.62;14.59;100733.53;5009382;28;20048;-73
2021/05/20 08:04:05;;;;;;;4.18;0.90;;;;;;;42.51;14.52;100740.72;5033624;28;20065;-72
2021/05/20 08:07:24;;;;;;;2.58;0.88;;;;;;;42.34;14.17;100735.94;5041285;28;20499;-72
2021/05/20 08:13:53;;;;;;;4.95;1.02;;;;;;;40.75;15.41;100739.63;5034848;28;20049;-75
2021/05/20 08:16:57;;;;;;;4.10;1.20;;;;;;;40.97;15.85;100738.72;5024096;28;20440;-73
2021/05/20 08:20:05;;;;;;;4.57;1.10;;;;;;;37.49;17.35;100734.41;5035253;28;20060;-75
2021/05/20 08:23:09;;;;;;;2.35;0.98;;;;;;;34.87;19.99;100746.00;5023431;28;20069;-74
2021/05/20 08:26:14;;;;;;;3.95;1.10;;;;;;;32.27;22.92;100745.25;5035152;28;20052;-73
2021/05/20 08:29:18;;;;;;;5.03;1.02;;;;;;;30.36;24.78;100743.94;5023613;28;20531;-75
2021/05/20 08:32:26;;;;;;;4.30;1.35;;;;;;;28.92;26.61;100746.28;5035292;28;20068;-77
2021/05/20 08:35:31;;;;;;;5.15;1.38;;;;;;;28.05;27.98;100747.31;5034849;28;20052;-74
2021/05/20 08:38:36;;;;;;;3.55;1.10;;;;;;;27.37;29.64;100748.78;5034505;28;20171;-76
2021/05/20 08:41:40;;;;;;;6.55;1.30;;;;;;;26.64;29.31;100743.34;5034067;28;20543;-74
2021/05/20 08:44:45;;;;;;;3.55;1.38;;;;;;;26.36;31.12;100746.66;5034218;28;20599;-75
2021/05/20 08:47:51;;;;;;;2.55;1.20;;;;;;;26.19;30.55;100734.56;5034504;28;20049;-74
2021/05/20 08:50:57;;;;;;;3.65;1.30;;;;;;;26.03;31.06;100740.59;5015353;28;20056;-75
2021/05/20 08:54:01;;;;;;;6.72;1.27;;;;;;;25.77;30.28;100757.34;5015481;28;20045;-75
2021/05/20 08:57:06;;;;;;;3.78;1.48;;;;;;;25.50;30.98;100747.59;5015940;28;20045;-74
2021/05/20 09:00:17;;;;;;;3.95;1.30;;;;;;;25.57;31.16;100752.00;5015202;28;20049;-74
2021/05/20 09:03:21;;;;;;;5.13;1.20;;;;;;;25.32;30.51;100752.97;5015739;28;20065;-74
2021/05/20 09:06:41;;;;;;;5.47;1.30;;;;;;;25.25;30.67;100749.41;5016317;28;20061;-74
2021/05/20 09:09:48;;;;;;;4.07;1.20;;;;;;;25.15;30.58;100764.47;5026090;28;20060;-74
2021/05/20 09:13:13;;;;;;;4.32;0.93;;;;;;;25.14;30.00;100753.69;5035795;28;20065;-74
2021/05/20 09:16:20;;;;;;;3.90;1.30;;;;;;;24.78;30.47;100757.03;5035434;28;20049;-75
2021/05/20 09:19:24;;;;;;;4.63;1.40;;;;;;;24.70;32.40;100764.63;5035448;28;20065;-75
2021/05/20 09:22:29;;;;;;;7.72;2.03;;;;;;;24.59;32.33;100757.91;5035500;28;20045;-75
2021/05/20 09:25:36;;;;;;;4.95;1.67;;;;;;;24.59;32.54;100766.13;5019952;28;20045;-74
2021/05/20 09:28:49;;;;;;;6.40;1.50;;;;;;;24.25;32.52;100769.16;5012198;28;20071;-76
2021/05/20 09:32:05;;;;;;;5.70;1.65;;;;;;;24.03;33.65;100767.69;5035354;28;20053;-75
2021/05/20 09:35:11;;;;;;;6.80;1.70;;;;;;;24.01;33.08;100761.56;5023218;28;20091;-74
2021/05/20 09:38:22;;;;;;;8.15;1.63;;;;;;;24.39;33.46;100757.94;5021559;28;20068;-74
2021/05/20 09:41:26;;;;;;;5.53;1.70;;;;;;;24.33;32.67;100769.81;5019521;28;20048;-75
2021/05/20 09:44:32;;;;;;;6.40;1.98;;;;;;;24.12;33.03;100766.47;5022210;28;20048;-74
2021/05/20 09:47:39;;;;;;;4.20;1.48;;;;;;;24.17;32.92;100758.44;5033854;28;20052;-73
2021/05/20 09:50:46;;;;;;;3.38;1.73;;;;;;;24.11;32.65;100767.50;5044906;28;20504;-74
2021/05/20 09:53:52;;;;;;;3.70;1.80;;;;;;;24.08;33.13;100774.25;5022286;28;20056;-73
2021/05/20 09:56:57;;;;;;;8.57;2.10;;;;;;;23.97;32.87;100771.28;5021922;28;20056;-73
2021/05/20 10:00:05;;;;;;;7.53;2.05;;;;;;;24.00;33.73;100771.69;5044986;28;20045;-73
2021/05/20 10:03:15;;;;;;;3.75;1.95;;;;;;;23.93;35.01;100774.44;5022183;28;20061;-72
2021/05/20 10:06:37;;;;;;;4.75;1.90;;;;;;;23.96;33.84;100775.94;5010747;28;20410;-73
2021/05/20 10:09:41;;;;;;;3.60;2.00;;;;;;;23.64;33.96;100772.13;5028952;28;20112;-73
2021/05/20 10:12:46;;;;;;;6.00;1.83;;;;;;;23.58;34.78;100764.72;5026162;28;20052;-73
2021/05/20 10:15:52;;;;;;;5.38;1.73;;;;;;;23.74;35.13;100772.56;5033660;28;20068;-75
2021/05/20 10:18:57;;;;;;;4.95;2.03;;;;;;;24.01;34.04;100772.53;5033519;28;20048;-74
2021/05/20 10:22:02;;;;;;;4.45;2.15;;;;;;;24.02;34.16;100769.59;5032798;28;20053;-73
2021/05/20 10:25:08;;;;;;;3.35;1.60;;;;;;;24.07;34.03;100767.09;5021727;28;20076;-72
2021/05/20 10:28:15;;;;;;;4.47;2.25;;;;;;;24.03;33.22;100773.16;5010311;28;20068;-77
2021/05/20 10:31:20;;;;;;;4.38;2.20;;;;;;;23.91;32.96;100753.78;5021444;28;20048;-75
2021/05/20 10:34:25;;;;;;;8.85;2.03;;;;;;;23.56;33.18;100755.88;5008198;28;20053;-77
2021/05/20 10:37:40;;;;;;;5.68;2.03;;;;;;;23.72;32.76;100755.47;5008717;28;20456;-74
2021/05/20 10:40:45;;;;;;;4.50;1.70;;;;;;;24.07;32.13;100755.25;5007958;28;20052;-74
2021/05/20 10:44:07;;;;;;;4.60;1.67;;;;;;;24.10;31.91;100754.84;5018155;28;20073;-73
2021/05/20 10:47:11;;;;;;;6.68;2.42;;;;;;;24.11;30.85;100759.28;5011469;28;20061;-82
2021/05/20 10:50:16;;;;;;;6.90;1.80;;;;;;;24.08;30.44;100754.22;5024695;28;20061;-75
2021/05/20 10:53:41;;;;;;;3.08;1.58;;;;;;;23.98;30.61;100746.38;5023147;28;20049;-78
2021/05/20 10:56:49;;;;;;;2.90;1.70;;;;;;;24.11;31.06;100748.31;5013896;28;20049;-79
2021/05/20 10:59:54;;;;;;;2.85;1.80;;;;;;;24.27;29.62;100745.94;5001965;28;20069;-80
2021/05/20 11:02:59;;;;;;;4.90;1.73;;;;;;;24.28;30.12;100750.41;5001984;28;20053;-78
2021/05/20 11:06:04;;;;;;;3.20;1.80;;;;;;;24.15;28.77;100747.66;4990737;28;20058;-80
2021/05/20 11:09:11;;;;;;;4.20;1.40;;;;;;;24.02;30.79;100757.78;5013117;28;20053;-79
2021/05/20 11:12:19;;;;;;;4.07;0.90;;;;;;;24.11;27.52;100740.94;4998580;28;20060;-79
2021/05/20 11:15:25;;;;;;;3.03;1.50;;;;;;;24.04;29.22;100748.28;4980345;28;20398;-79
2021/05/20 11:18:35;;;;;;;6.32;1.83;;;;;;;24.12;29.06;100744.53;5001921;28;20061;-79
2021/05/20 11:22:09;;;;;;;1.98;1.05;;;;;;;24.21;25.12;100743.22;5013214;28;20041;-77
2021/05/20 11:25:17;;;;;;;;;;;;;;;24.07;25.18;100742.41;5013896;28;20053;-77
2021/05/20 11:28:21;;;;;;;3.92;1.75;;;;;;;24.02;25.96;100733.94;5001676;28;19929;-76
2021/05/20 11:31:27;;;;;;;3.13;1.48;;;;;;;23.87;26.90;100738.81;5013632;28;20402;-75
2021/05/20 11:37:45;;;;;;;2.15;1.00;;;;;;;24.07;26.77;100736.06;5034185;28;20048;-74
2021/05/20 11:40:50;;;;;;;2.50;1.00;;;;;;;24.08;26.33;100741.34;5037141;28;20113;-75
2021/05/20 11:44:11;;;;;;;2.72;1.00;;;;;;;24.05;28.60;100746.41;5036146;28;20052;-79
2021/05/20 11:47:16;;;;;;;3.05;1.40;;;;;;;24.01;30.19;100739.63;5034577;28;20495;-81
2021/05/20 11:50:23;;;;;;;3.22;1.35;;;;;;;24.07;28.03;100731.44;5035591;28;20049;-73
2021/05/20 11:53:27;;;;;;;2.80;1.20;;;;;;;23.82;30.08;100733.97;5036029;28;20508;-73
2021/05/20 11:56:48;;;;;;;5.70;1.27;;;;;;;23.74;29.29;100731.44;5033747;28;20068;-81
2021/05/20 11:59:54;;;;;;;2.80;0.95;;;;;;;23.91;30.55;100737.31;5033289;28;20064;-79
2021/05/20 12:02:58;;;;;;;2.58;1.20;;;;;;;23.82;28.20;100725.75;5034719;28;20134;-83
2021/05/20 12:06:04;;;;;;;4.00;1.00;;;;;;;23.96;29.44;100721.06;5035255;28;20062;-73
2021/05/20 12:09:13;;;;;;;3.75;1.30;;;;;;;24.07;28.43;100733.31;5035847;28;20128;-72
2021/05/20 12:12:19;;;;;;;4.15;1.48;;;;;;;24.01;28.54;100728.66;5034431;28;20392;-80
2021/05/20 12:15:27;;;;;;;2.10;1.20;;;;;;;24.04;26.31;100733.72;5035271;28;20040;-82
2021/05/20 12:18:40;;;;;;;3.40;1.13;;;;;;;23.92;27.35;100736.28;5033947;28;20049;-73
2021/05/20 12:21:59;;;;;;;3.30;1.10;;;;;;;23.91;26.21;100732.69;5034363;28;20064;-79
2021/05/20 12:25:10;;;;;;;1.80;1.00;;;;;;;23.98;25.79;100727.19;5032372;28;20076;-80
2021/05/20 12:28:14;;;;;;;2.35;0.90;;;;;;;24.00;25.42;100722.31;5044576;28;20044;-74
2021/05/20 12:31:20;;;;;;;4.78;1.30;;;;;;;23.91;25.24;100731.84;5033581;28;20044;-77
2021/05/20 12:34:24;;;;;;;2.47;1.20;;;;;;;23.83;25.87;100729.31;5035153;28;20061;-78
2021/05/20 12:37:51;;;;;;;3.95;1.00;;;;;;;24.03;25.34;100732.03;5048050;28;20057;-74
2021/05/20 12:41:00;;;;;;;1.83;1.00;;;;;;;24.05;24.23;100722.53;5033511;28;20053;-74
2021/05/20 12:44:15;;;;;;;3.15;1.10;;;;;;;23.98;25.38;100718.97;5034171;28;20056;-75
2021/05/20 12:47:20;;;;;;;2.67;1.00;;;;;;;24.00;25.64;100718.75;5033971;28;20060;-77
2021/05/20 12:50:36;;;;;;;3.28;1.00;;;;;;;24.04;27.07;100720.00;5034433;28;20044;-74
2021/05/20 12:53:43;;;;;;;6.45;1.15;;;;;;;23.91;26.07;100727.19;5044754;28;20408;-74
2021/05/20 12:56:50;;;;;;;6.22;0.90;;;;;;;23.96;24.98;100721.06;5034466;28;20045;-74
2021/05/20 13:00:01;;;;;;;1.95;0.80;;;;;;;24.00;24.75;100727.00;5029718;28;20049;-74
2021/05/20 13:03:05;;;;;;;3.88;1.10;;;;;;;24.06;22.71;100712.41;5034294;28;20053;-75
2021/05/20 13:06:09;;;;;;;2.28;1.00;;;;;;;23.99;23.00;100711.56;5034855;28;20047;-73
2021/05/20 13:09:15;;;;;;;2.67;1.40;;;;;;;23.93;24.60;100714.13;5032658;28;20044;-78
2021/05/20 13:12:29;;;;;;;4.80;1.23;;;;;;;24.05;24.98;100716.22;5030306;28;20065;-75
2021/05/20 13:15:48;;;;;;;2.83;1.10;;;;;;;24.06;25.35;100709.66;5016229;28;20401;-77
2021/05/20 13:20:15;;;;;;;2.85;0.93;;;;;;;24.00;24.29;100710.53;5025799;28;20044;-78
2021/05/20 13:22:44;;;;;;;1.70;0.90;;;;;;;24.06;24.26;100706.91;5036154;28;20064;-76
2021/05/20 13:25:48;;;;;;;3.53;0.80;;;;;;;24.21;23.19;100715.78;5016506;28;20061;-79
2021/05/20 13:28:53;;;;;;;2.55;0.60;;;;;;;24.28;21.09;100713.88;5034815;28;20211;-77
2021/05/20 13:31:58;;;;;;;1.95;0.50;;;;;;;24.22;20.63;100706.53;5034388;28;20057;-80
2021/05/20 13:35:06;;;;;;;2.85;0.70;;;;;;;24.08;20.99;100711.16;5031800;28;20412;-79
2021/05/20 13:38:10;;;;;;;1.50;0.60;;;;;;;24.10;21.44;100708.19;5034635;28;20056;-79
2021/05/20 13:41:15;;;;;;;4.43;0.85;;;;;;;24.22;21.86;100712.81;5035321;28;20048;-79
2021/05/20 13:44:20;;;;;;;1.80;0.70;;;;;;;24.24;21.31;100702.50;5034578;28;20061;-78
2021/05/20 13:47:37;;;;;;;2.45;1.05;;;;;;;24.17;22.48;100703.56;5035113;28;20049;-79
2021/05/20 13:50:44;;;;;;;2.40;1.10;;;;;;;24.07;23.21;100700.41;5034480;28;20500;-75
2021/05/20 13:53:50;;;;;;;2.15;0.90;;;;;;;24.07;24.12;100686.69;5034770;28;20048;-78
2021/05/20 13:56:54;;;;;;;2.85;0.90;;;;;;;24.07;24.26;100689.41;5014692;28;20492;-79
2021/05/20 14:00:02;;;;;;;2.40;0.93;;;;;;;24.14;24.10;100688.38;5031249;28;20056;-79
2021/05/20 14:03:11;;;;;;;3.22;0.98;;;;;;;24.19;24.08;100691.31;5034816;28;20064;-79
2021/05/20 14:06:16;;;;;;;1.50;0.70;;;;;;;24.25;24.38;100686.84;5034763;28;20044;-82
2021/05/20 14:09:20;;;;;;;2.20;0.80;;;;;;;24.17;21.94;100687.13;5034766;28;20385;-82
2021/05/20 14:12:25;;;;;;;2.83;0.70;;;;;;;24.18;22.90;100683.28;5045187;28;20045;-79
2021/05/20 14:15:30;;;;;;;1.73;0.70;;;;;;;24.14;21.52;100676.56;5022094;28;20049;-79
2021/05/20 14:18:34;;;;;;;4.38;1.10;;;;;;;24.20;21.96;100676.53;5025681;28;20045;-79
2021/05/20 14:21:38;;;;;;;1.90;0.77;;;;;;;24.07;22.24;100672.97;5034521;28;20045;-77
2021/05/20 14:24:43;;;;;;;2.40;0.77;;;;;;;24.04;23.04;100670.63;5034417;28;20061;-74
2021/05/20 14:27:47;;;;;;;1.88;0.80;;;;;;;24.07;23.15;100675.72;5033873;28;20061;-79
2021/05/20 14:30:52;;;;;;;1.42;0.68;;;;;;;24.00;24.06;100667.47;5013335;28;20516;-78
2021/05/20 14:33:56;;;;;;;5.38;0.70;;;;;;;24.06;23.80;100674.84;5014544;28;20069;-77
2021/05/20 14:37:01;;;;;;;2.08;0.90;;;;;;;24.17;23.55;100665.97;5016618;28;20061;-82
2021/05/20 14:40:06;;;;;;;1.65;0.50;;;;;;;24.01;21.55;100662.84;5013532;28;20053;-81